Time;durP1;ratioP1;P1;durP2;ratioP2;P2;SDS_P1;SDS_P2;PMS_P1;PMS_P2;Temp;Humidity;BMP_temperature;BMP_pressure;BME280_temperature;BME280_humidity;BME280_pressure;Samples;Min_cycle;Max_cycle;Signal;HPM_P1;HPM_P2
2021/07/15 00:00:11;;;;;;;;;;;;;;;;;;2106269;28;45910;-73
2021/07/15 00:01:12;;;;;;;;;;;;;;;;;;2115161;28;44287;-71
2021/07/15 00:02:14;;;;;;;;;;;;;;;;;;2114420;28;44348;-71
2021/07/15 00:03:17;;;;;;;;;;;;;;;;;;2114660;28;47109;-71
2021/07/15 00:04:19;;;;;;;;;;;;;;;;;;2114582;28;44841;-71
2021/07/15 00:05:21;;;;;;;;;;;;;;;;;;2114853;28;46288;-70
2021/07/15 00:06:23;;;;;;;;;;;;;;;;;;2115079;27;46679;-69
2021/07/15 00:07:24;;;;;;;;;;;;;;;;;;2114313;28;46575;-70
2021/07/15 00:08:27;;;;;;;;;;;;;;;;;;2106131;28;46481;-69
2021/07/15 00:09:28;;;;;;;;;;;;;;;;;;2114485;28;46597;-69
2021/07/15 00:10:32;;;;;;;;;;;;;;;;;;2115011;27;46478;-69
2021/07/15 00:11:36;;;;;;;;;;;;;;;;;;2114591;28;44305;-70
2021/07/15 00:12:40;;;;;;;;;;;;;;;;;;2106318;28;43543;-70
2021/07/15 00:13:41;;;;;;;;;;;;;;;;;;2114684;28;45361;-70
2021/07/15 00:14:43;;;;;;;;;;;;;;;;;;2114137;28;45961;-70
2021/07/15 00:15:47;;;;;;;;;;;;;;;;;;2106177;28;46433;-70
2021/07/15 00:16:51;;;;;;;;;;;;;;;;;;2114440;28;46879;-70
2021/07/15 00:17:54;;;;;;;;;;;;;;;;;;2114643;28;44385;-70
2021/07/15 00:18:56;;;;;;;;;;;;;;;;;;2106377;28;45314;-70
2021/07/15 00:19:57;;;;;;;;;;;;;;;;;;2114593;28;46462;-70
2021/07/15 00:21:00;;;;;;;;;;;;;;;;;;2106324;28;46348;-70
2021/07/15 00:22:01;;;;;;;;;;;;;;;;;;2114259;28;45279;-70
2021/07/15 00:23:03;;;;;;;;;;;;;;;;;;2120042;27;45346;-70
2021/07/15 00:24:05;;;;;;;;;;;;;;;;;;2122537;27;45183;-70
2021/07/15 00:25:09;;;;;;;;;;;;;;;;;;2121775;27;43539;-70
2021/07/15 00:26:11;;;;;;;;;;;;;;;;;;2119575;28;45740;-70
2021/07/15 00:27:12;;;;;;;;;;;;;;;;;;2112138;28;45307;-70
2021/07/15 00:28:15;;;;;;;;;;;;;;;;;;2112717;28;45727;-70
2021/07/15 00:29:17;;;;;;;;;;;;;;;;;;2111647;28;45466;-70
2021/07/15 00:30:18;;;;;;;;;;;;;;;;;;2121961;28;43161;-70
2021/07/15 00:31:20;;;;;;;;;;;;;;;;;;2112541;28;44302;-70
2021/07/15 00:32:21;;;;;;;;;;;;;;;;;;2112748;28;45489;-70
2021/07/15 00:33:23;;;;;;;;;;;;;;;;;;2106069;28;46540;-70
2021/07/15 00:34:24;;;;;;;;;;;;;;;;;;2114375;28;46919;-70
2021/07/15 00:35:25;;;;;;;;;;;;;;;;;;2106017;28;46508;-70
2021/07/15 00:36:27;;;;;;;;;;;;;;;;;;2114479;28;45522;-70
2021/07/15 00:37:29;;;;;;;;;;;;;;;;;;2114194;28;44028;-70
2021/07/15 00:38:30;;;;;;;;;;;;;;;;;;2114692;28;43104;-70
2021/07/15 00:39:32;;;;;;;;;;;;;;;;;;2106110;28;46675;-70
2021/07/15 00:40:35;;;;;;;;;;;;;;;;;;2106101;28;46556;-70
2021/07/15 00:41:36;;;;;;;;;;;;;;;;;;2106251;28;44249;-69
2021/07/15 00:42:38;;;;;;;;;;;;;;;;;;2105794;28;46814;-69
2021/07/15 00:43:39;;;;;;;;;;;;;;;;;;2114143;28;45880;-69
2021/07/15 00:44:41;;;;;;;;;;;;;;;;;;2114342;28;46661;-73
2021/07/15 00:45:42;;;;;;;;;;;;;;;;;;2106672;28;44094;-74
2021/07/15 00:46:44;;;;;;;;;;;;;;;;;;2115262;28;46693;-74
2021/07/15 00:47:46;;;;;;;;;;;;;;;;;;2106298;28;47024;-68
2021/07/15 00:48:47;;;;;;;;;;;;;;;;;;2114748;28;45726;-68
2021/07/15 00:49:49;;;;;;;;;;;;;;;;;;2114985;27;45953;-68
2021/07/15 00:50:51;;;;;;;;;;;;;;;;;;2114259;28;46938;-68
2021/07/15 00:51:52;;;;;;;;;;;;;;;;;;2114549;28;43550;-67
2021/07/15 00:52:54;;;;;;;;;;;;;;;;;;2114162;28;43492;-68
2021/07/15 00:53:56;;;;;;;;;;;;;;;;;;2105866;28;46909;-68
2021/07/15 00:54:57;;;;;;;;;;;;;;;;;;2105898;28;45925;-68
2021/07/15 00:55:59;;;;;;;;;;;;;;;;;;2105913;28;47097;-68
2021/07/15 00:57:00;;;;;;;;;;;;;;;;;;2114061;28;45987;-68
2021/07/15 00:58:01;;;;;;;;;;;;;;;;;;2113698;28;46291;-68
2021/07/15 00:59:03;;;;;;;;;;;;;;;;;;2114518;28;46316;-68
2021/07/15 01:00:09;;;;;;;;;;;;;;;;;;2114863;27;47088;-68
2021/07/15 01:01:10;;;;;;;;;;;;;;;;;;2114197;28;45897;-68
2021/07/15 01:02:12;;;;;;;;;;;;;;;;;;2105732;28;45892;-68
2021/07/15 01:03:14;;;;;;;;;;;;;;;;;;2114246;28;45582;-68
2021/07/15 01:04:15;;;;;;;;;;;;;;;;;;2114601;28;45370;-68
2021/07/15 01:05:19;;;;;;;;;;;;;;;;;;2114923;28;46159;-68
2021/07/15 01:06:20;;;;;;;;;;;;;;;;;;2114118;28;45935;-68
2021/07/15 01:07:22;;;;;;;;;;;;;;;;;;2105754;28;46015;-68
2021/07/15 01:08:24;;;;;;;;;;;;;;;;;;2114563;28;44479;-68
2021/07/15 01:09:25;;;;;;;;;;;;;;;;;;2105999;28;46073;-68
2021/07/15 01:10:33;;;;;;;;;;;;;;;;;;2114127;28;47095;-69
2021/07/15 01:11:43;;;;;;;;;;;;;;;;;;2115146;27;46229;-67
2021/07/15 01:13:03;;;;;;;;;;;;;;;;;;2113847;28;44798;-68
2021/07/15 01:14:10;;;;;;;;;;;;;;;;;;2108243;28;43637;-68
2021/07/15 01:15:22;;;;;;;;;;;;;;;;;;2114200;27;45351;-68
2021/07/15 01:16:44;;;;;;;;;;;;;;;;;;2114199;28;45088;-68
2021/07/15 01:17:55;;;;;;;;;;;;;;;;;;2114346;28;45534;-68
2021/07/15 01:19:02;;;;;;;;;;;;;;;;;;2114170;28;45601;-68
2021/07/15 01:20:22;;;;;;;;;;;;;;;;;;2114265;28;46294;-68
2021/07/15 01:21:33;;;;;;;;;;;;;;;;;;2114660;28;45297;-68
2021/07/15 01:22:37;;;;;;;;;;;;;;;;;;2113961;28;45130;-68
2021/07/15 01:23:38;;;;;;;;;;;;;;;;;;2114152;28;46416;-68
2021/07/15 01:24:58;;;;;;;;;;;;;;;;;;2114211;28;45181;-68
2021/07/15 01:26:07;;;;;;;;;;;;;;;;;;2114224;28;43805;-69
2021/07/15 01:27:27;;;;;;;;;;;;;;;;;;2114204;28;46523;-68
2021/07/15 01:28:55;;;;;;;;;;;;;;;;;;2114119;28;46706;-67
2021/07/15 01:29:58;;;;;;;;;;;;;;;;;;2097979;27;45213;-68
2021/07/15 01:31:01;;;;;;;;;;;;;;;;;;2114456;28;43479;-68
2021/07/15 01:32:04;;;;;;;;;;;;;;;;;;2105773;28;45218;-68
2021/07/15 01:33:15;;;;;;;;;;;;;;;;;;2114156;28;44157;-68
2021/07/15 01:34:19;;;;;;;;;;;;;;;;;;2114278;28;44218;-68
2021/07/15 01:35:23;;;;;;;;;;;;;;;;;;2114022;28;43868;-68
2021/07/15 01:36:24;;;;;;;;;;;;;;;;;;2114232;28;45375;-68
2021/07/15 01:37:26;;;;;;;;;;;;;;;;;;2105697;28;44323;-68
2021/07/15 01:38:30;;;;;;;;;;;;;;;;;;2105733;28;45536;-69
2021/07/15 01:39:33;;;;;;;;;;;;;;;;;;2106163;28;45482;-68
2021/07/15 01:40:38;;;;;;;;;;;;;;;;;;2113666;28;46657;-68
2021/07/15 01:41:43;;;;;;;;;;;;;;;;;;2106269;28;45268;-68
2021/07/15 01:42:47;;;;;;;;;;;;;;;;;;2105945;28;45372;-68
2021/07/15 01:43:54;;;;;;;;;;;;;;;;;;2113934;28;45452;-69
2021/07/15 01:44:56;;;;;;;;;;;;;;;;;;2113777;28;45672;-69
2021/07/15 01:45:58;;;;;;;;;;;;;;;;;;2113911;28;46454;-68
2021/07/15 01:46:59;;;;;;;;;;;;;;;;;;2113701;28;46687;-68
2021/07/15 01:48:01;;;;;;;;;;;;;;;;;;2113981;28;46541;-68
2021/07/15 01:49:03;;;;;;;;;;;;;;;;;;2113911;28;46604;-68
2021/07/15 01:50:05;;;;;;;;;;;;;;;;;;2113866;28;46784;-68
2021/07/15 01:51:07;;;;;;;;;;;;;;;;;;2105602;28;45842;-68
2021/07/15 01:52:09;;;;;;;;;;;;;;;;;;2113802;28;46554;-68
2021/07/15 01:53:11;;;;;;;;;;;;;;;;;;2114590;27;46548;-68
2021/07/15 01:54:13;;;;;;;;;;;;;;;;;;2114764;27;44020;-68
2021/07/15 01:55:14;;;;;;;;;;;;;;;;;;2113825;28;47305;-68
2021/07/15 01:56:16;;;;;;;;;;;;;;;;;;2105671;28;45439;-68
2021/07/15 01:57:19;;;;;;;;;;;;;;;;;;2105924;28;45294;-69
2021/07/15 01:58:22;;;;;;;;;;;;;;;;;;2106066;28;46006;-69
2021/07/15 01:59:25;;;;;;;;;;;;;;;;;;2113927;28;47054;-69
2021/07/15 02:00:27;;;;;;;;;;;;;;;;;;2114483;27;47183;-68
2021/07/15 02:01:28;;;;;;;;;;;;;;;;;;2114556;27;47010;-69
2021/07/15 02:02:30;;;;;;;;;;;;;;;;;;2114193;28;44101;-68
2021/07/15 02:03:33;;;;;;;;;;;;;;;;;;2113900;28;45861;-69
2021/07/15 02:04:38;;;;;;;;;;;;;;;;;;2113905;28;45853;-69
2021/07/15 02:05:41;;;;;;;;;;;;;;;;;;2113790;28;45924;-68
2021/07/15 02:06:43;;;;;;;;;;;;;;;;;;2113476;28;46051;-69
2021/07/15 02:07:45;;;;;;;;;;;;;;;;;;2113154;28;45753;-69
2021/07/15 02:08:47;;;;;;;;;;;;;;;;;;2113045;28;45024;-69
2021/07/15 02:09:50;;;;;;;;;;;;;;;;;;2113100;28;44527;-70
2021/07/15 02:10:53;;;;;;;;;;;;;;;;;;2113810;28;46195;-68
2021/07/15 02:11:55;;;;;;;;;;;;;;;;;;2105564;28;46626;-68
2021/07/15 02:12:57;;;;;;;;;;;;;;;;;;2113710;28;44682;-69
2021/07/15 02:14:01;;;;;;;;;;;;;;;;;;2113779;28;47159;-70
2021/07/15 02:15:03;;;;;;;;;;;;;;;;;;2105814;28;45715;-70
2021/07/15 02:16:06;;;;;;;;;;;;;;;;;;2113907;28;45334;-69
2021/07/15 02:17:08;;;;;;;;;;;;;;;;;;2105755;28;44957;-69
2021/07/15 02:18:15;;;;;;;;;;;;;;;;;;2105176;28;46042;-69
2021/07/15 02:19:17;;;;;;;;;;;;;;;;;;2106281;28;47132;-69
2021/07/15 02:20:19;;;;;;;;;;;;;;;;;;2113506;28;45835;-69
2021/07/15 02:21:21;;;;;;;;;;;;;;;;;;2114767;28;45953;-69
2021/07/15 02:22:22;;;;;;;;;;;;;;;;;;2113901;28;44796;-69
2021/07/15 02:23:25;;;;;;;;;;;;;;;;;;2114058;28;44160;-68
2021/07/15 02:24:28;;;;;;;;;;;;;;;;;;2105579;28;45126;-68
2021/07/15 02:25:30;;;;;;;;;;;;;;;;;;2113734;28;46511;-70
2021/07/15 02:26:32;;;;;;;;;;;;;;;;;;2113748;28;45479;-70
2021/07/15 02:27:34;;;;;;;;;;;;;;;;;;2113586;28;45256;-70
2021/07/15 02:28:35;;;;;;;;;;;;;;;;;;2105428;28;46645;-70
2021/07/15 02:29:37;;;;;;;;;;;;;;;;;;2105488;28;43951;-70
2021/07/15 02:30:39;;;;;;;;;;;;;;;;;;2113940;28;44352;-69
2021/07/15 02:32:00;;;;;;;;;;;;;;;;;;2114167;28;44381;-69
2021/07/15 02:33:03;;;;;;;;;;;;;;;;;;2108079;28;46463;-70
2021/07/15 02:34:07;;;;;;;;;;;;;;;;;;2105468;28;46386;-70
2021/07/15 02:35:12;;;;;;;;;;;;;;;;;;2113713;28;43862;-69
2021/07/15 02:36:14;;;;;;;;;;;;;;;;;;2113548;28;46412;-70
2021/07/15 02:37:16;;;;;;;;;;;;;;;;;;2113757;28;46388;-70
2021/07/15 02:38:20;;;;;;;;;;;;;;;;;;2114164;27;46501;-70
2021/07/15 02:39:21;;;;;;;;;;;;;;;;;;2114333;27;45209;-70
2021/07/15 02:40:23;;;;;;;;;;;;;;;;;;2113593;28;46500;-70
2021/07/15 02:41:25;;;;;;;;;;;;;;;;;;2105584;28;45593;-68
2021/07/15 02:42:26;;;;;;;;;;;;;;;;;;2104977;28;45498;-68
2021/07/15 02:43:30;;;;;;;;;;;;;;;;;;2114090;28;44737;-68
2021/07/15 02:44:31;;;;;;;;;;;;;;;;;;2113614;28;45797;-68
2021/07/15 02:45:33;;;;;;;;;;;;;;;;;;2114239;27;46523;-68
2021/07/15 02:46:35;;;;;;;;;;;;;;;;;;2114182;27;49225;-67
2021/07/15 02:47:38;;;;;;;;;;;;;;;;;;2114224;27;45434;-67
2021/07/15 02:48:40;;;;;;;;;;;;;;;;;;2114262;27;43561;-67
2021/07/15 02:49:41;;;;;;;;;;;;;;;;;;2114212;27;45428;-67
2021/07/15 02:50:43;;;;;;;;;;;;;;;;;;2113585;28;45270;-67
2021/07/15 02:51:44;;;;;;;;;;;;;;;;;;2105324;28;45430;-67
2021/07/15 02:52:47;;;;;;;;;;;;;;;;;;2105185;28;45286;-68
2021/07/15 02:53:48;;;;;;;;;;;;;;;;;;2105504;28;45865;-68
2021/07/15 02:54:50;;;;;;;;;;;;;;;;;;2113740;28;45800;-67
2021/07/15 02:55:55;;;;;;;;;;;;;;;;;;2113663;28;46439;-67
2021/07/15 02:57:03;;;;;;;;;;;;;;;;;;2105608;28;45445;-68
2021/07/15 02:58:08;;;;;;;;;;;;;;;;;;2113655;28;44322;-68
2021/07/15 02:59:19;;;;;;;;;;;;;;;;;;2113570;28;46659;-67
2021/07/15 03:00:20;;;;;;;;;;;;;;;;;;2113613;28;45799;-68
2021/07/15 03:01:23;;;;;;;;;;;;;;;;;;2105223;28;43946;-68
2021/07/15 03:02:33;;;;;;;;;;;;;;;;;;2113427;28;45876;-67
2021/07/15 03:03:43;;;;;;;;;;;;;;;;;;2113577;28;46556;-67
2021/07/15 03:04:49;;;;;;;;;;;;;;;;;;2113394;28;46503;-67
2021/07/15 03:05:59;;;;;;;;;;;;;;;;;;2106303;28;45507;-67
2021/07/15 03:07:03;;;;;;;;;;;;;;;;;;2113554;28;45916;-67
2021/07/15 03:08:09;;;;;;;;;;;;;;;;;;2105162;28;46303;-67
2021/07/15 03:09:13;;;;;;;;;;;;;;;;;;2105840;28;47105;-67
2021/07/15 03:10:15;;;;;;;;;;;;;;;;;;2113490;28;47385;-67
2021/07/15 03:11:18;;;;;;;;;;;;;;;;;;2114167;27;47291;-67
2021/07/15 03:12:21;;;;;;;;;;;;;;;;;;2113665;27;44527;-67
2021/07/15 03:13:23;;;;;;;;;;;;;;;;;;2113520;28;46824;-67
2021/07/15 03:14:25;;;;;;;;;;;;;;;;;;2113129;28;45939;-68
2021/07/15 03:15:27;;;;;;;;;;;;;;;;;;2113662;28;44214;-68
2021/07/15 03:16:30;;;;;;;;;;;;;;;;;;2105248;28;46962;-68
2021/07/15 03:17:34;;;;;;;;;;;;;;;;;;2113473;28;46231;-68
2021/07/15 03:18:35;;;;;;;;;;;;;;;;;;2113439;28;46003;-68
2021/07/15 03:19:40;;;;;;;;;;;;;;;;;;2113738;28;44241;-68
2021/07/15 03:20:42;;;;;;;;;;;;;;;;;;2105902;28;45936;-67
2021/07/15 03:21:44;;;;;;;;;;;;;;;;;;2114860;28;46928;-68
2021/07/15 03:22:49;;;;;;;;;;;;;;;;;;2106227;28;47009;-68
2021/07/15 03:23:53;;;;;;;;;;;;;;;;;;2107050;28;45989;-69
2021/07/15 03:24:59;;;;;;;;;;;;;;;;;;2114892;28;46480;-69
2021/07/15 03:26:01;;;;;;;;;;;;;;;;;;2115555;27;46146;-68
2021/07/15 03:27:04;;;;;;;;;;;;;;;;;;2115459;27;44547;-69
2021/07/15 03:28:07;;;;;;;;;;;;;;;;;;2114699;28;44820;-68
2021/07/15 03:29:09;;;;;;;;;;;;;;;;;;2115201;28;47370;-68
2021/07/15 03:30:14;;;;;;;;;;;;;;;;;;2114838;28;46702;-68
2021/07/15 03:31:16;;;;;;;;;;;;;;;;;;2106993;28;44369;-69
2021/07/15 03:32:18;;;;;;;;;;;;;;;;;;2114707;28;45246;-69
2021/07/15 03:33:21;;;;;;;;;;;;;;;;;;2114856;28;46748;-69
2021/07/15 03:34:23;;;;;;;;;;;;;;;;;;2114736;28;46843;-69
2021/07/15 03:35:25;;;;;;;;;;;;;;;;;;2114671;28;46509;-69
2021/07/15 03:36:27;;;;;;;;;;;;;;;;;;2114831;28;46558;-69
2021/07/15 03:37:29;;;;;;;;;;;;;;;;;;2114630;28;43732;-69
2021/07/15 03:38:31;;;;;;;;;;;;;;;;;;2106488;28;46737;-69
2021/07/15 03:39:33;;;;;;;;;;;;;;;;;;2114750;28;46799;-69
2021/07/15 03:40:35;;;;;;;;;;;;;;;;;;2106251;28;46258;-69
2021/07/15 03:41:38;;;;;;;;;;;;;;;;;;2106424;28;44145;-70
2021/07/15 03:42:43;;;;;;;;;;;;;;;;;;2114492;28;44125;-70
2021/07/15 03:43:45;;;;;;;;;;;;;;;;;;2106881;28;46716;-71
2021/07/15 03:44:46;;;;;;;;;;;;;;;;;;2106782;28;45248;-69
2021/07/15 03:45:49;;;;;;;;;;;;;;;;;;2114678;28;45831;-70
2021/07/15 03:46:50;;;;;;;;;;;;;;;;;;2114740;28;45549;-70
2021/07/15 03:47:53;;;;;;;;;;;;;;;;;;2114690;28;44198;-70
2021/07/15 03:48:54;;;;;;;;;;;;;;;;;;2114754;28;45063;-70
2021/07/15 03:49:57;;;;;;;;;;;;;;;;;;2114570;28;45434;-69
2021/07/15 03:51:03;;;;;;;;;;;;;;;;;;2114985;28;45814;-68
2021/07/15 03:52:05;;;;;;;;;;;;;;;;;;2114520;28;46763;-68
2021/07/15 03:53:07;;;;;;;;;;;;;;;;;;2114786;28;44547;-68
2021/07/15 03:54:09;;;;;;;;;;;;;;;;;;2114493;28;45667;-69
2021/07/15 03:55:10;;;;;;;;;;;;;;;;;;2114589;28;47430;-69
2021/07/15 03:56:13;;;;;;;;;;;;;;;;;;2114699;28;47063;-68
2021/07/15 03:57:18;;;;;;;;;;;;;;;;;;2115152;27;46571;-69
2021/07/15 03:58:20;;;;;;;;;;;;;;;;;;2115228;27;43450;-69
2021/07/15 03:59:23;;;;;;;;;;;;;;;;;;2114746;28;44333;-69
2021/07/15 04:00:25;;;;;;;;;;;;;;;;;;2106442;28;46876;-69
2021/07/15 04:01:33;;;;;;;;;;;;;;;;;;2106649;28;46312;-69
2021/07/15 04:02:36;;;;;;;;;;;;;;;;;;2114444;28;44424;-69
2021/07/15 04:03:39;;;;;;;;;;;;;;;;;;2106553;28;46980;-68
2021/07/15 04:04:43;;;;;;;;;;;;;;;;;;2114450;28;47323;-68
2021/07/15 04:05:45;;;;;;;;;;;;;;;;;;2115113;27;45714;-68
2021/07/15 04:06:47;;;;;;;;;;;;;;;;;;2114598;28;46965;-68
2021/07/15 04:07:51;;;;;;;;;;;;;;;;;;2106236;28;46904;-68
2021/07/15 04:08:53;;;;;;;;;;;;;;;;;;2114538;28;45627;-68
2021/07/15 04:09:55;;;;;;;;;;;;;;;;;;2114436;28;46824;-68
2021/07/15 04:11:00;;;;;;;;;;;;;;;;;;2114578;28;45634;-68
2021/07/15 04:12:02;;;;;;;;;;;;;;;;;;2114213;28;44362;-68
2021/07/15 04:13:04;;;;;;;;;;;;;;;;;;2115557;27;45680;-68
2021/07/15 04:14:10;;;;;;;;;;;;;;;;;;2115123;28;46214;-68
2021/07/15 04:15:13;;;;;;;;;;;;;;;;;;2114475;28;45551;-68
2021/07/15 04:16:33;;;;;;;;;;;;;;;;;;2106450;28;44949;-68
2021/07/15 04:17:55;;;;;;;;;;;;;;;;;;2108631;28;46093;-68
2021/07/15 04:18:59;;;;;;;;;;;;;;;;;;2108662;28;47349;-69
2021/07/15 04:20:03;;;;;;;;;;;;;;;;;;2114519;28;46069;-68
2021/07/15 04:21:05;;;;;;;;;;;;;;;;;;2114547;28;44766;-68
2021/07/15 04:22:09;;;;;;;;;;;;;;;;;;2114982;27;46275;-68
2021/07/15 04:23:11;;;;;;;;;;;;;;;;;;2114569;28;45840;-68
2021/07/15 04:24:13;;;;;;;;;;;;;;;;;;2114529;28;47021;-68
2021/07/15 04:25:15;;;;;;;;;;;;;;;;;;2114237;28;46115;-68
2021/07/15 04:26:17;;;;;;;;;;;;;;;;;;2114445;28;44135;-68
2021/07/15 04:27:18;;;;;;;;;;;;;;;;;;2114878;28;47237;-68
2021/07/15 04:28:20;;;;;;;;;;;;;;;;;;2114437;28;44531;-70
2021/07/15 04:29:21;;;;;;;;;;;;;;;;;;2114518;28;45941;-69
2021/07/15 04:30:23;;;;;;;;;;;;;;;;;;2115111;27;47240;-69
2021/07/15 04:31:47;;;;;;;;;;;;;;;;;;2114493;28;46100;-69
2021/07/15 04:32:51;;;;;;;;;;;;;;;;;;2108268;28;47441;-68
2021/07/15 04:33:53;;;;;;;;;;;;;;;;;;2114359;28;45781;-68
2021/07/15 04:34:55;;;;;;;;;;;;;;;;;;2114972;27;47000;-68
2021/07/15 04:35:57;;;;;;;;;;;;;;;;;;2114447;28;45792;-68
2021/07/15 04:36:59;;;;;;;;;;;;;;;;;;2106285;28;46129;-68
2021/07/15 04:38:01;;;;;;;;;;;;;;;;;;2105874;28;45214;-68
2021/07/15 04:39:02;;;;;;;;;;;;;;;;;;2106206;28;45621;-68
2021/07/15 04:40:08;;;;;;;;;;;;;;;;;;2114233;28;47026;-70
2021/07/15 04:41:10;;;;;;;;;;;;;;;;;;2114867;27;46731;-70
2021/07/15 04:42:13;;;;;;;;;;;;;;;;;;2114348;28;45159;-69
2021/07/15 04:43:15;;;;;;;;;;;;;;;;;;2114386;28;46623;-70
2021/07/15 04:44:18;;;;;;;;;;;;;;;;;;2115110;27;45173;-69
2021/07/15 04:45:23;;;;;;;;;;;;;;;;;;2114994;27;46634;-70
2021/07/15 04:46:25;;;;;;;;;;;;;;;;;;2114996;28;45321;-68
2021/07/15 04:47:26;;;;;;;;;;;;;;;;;;2114147;28;44774;-68
2021/07/15 04:48:28;;;;;;;;;;;;;;;;;;2114253;28;45297;-68
2021/07/15 04:49:30;;;;;;;;;;;;;;;;;;2114283;28;44007;-68
2021/07/15 04:50:32;;;;;;;;;;;;;;;;;;2106109;28;45324;-68
2021/07/15 04:51:37;;;;;;;;;;;;;;;;;;2114356;28;46331;-68
2021/07/15 04:52:39;;;;;;;;;;;;;;;;;;2114185;28;45305;-68
2021/07/15 04:53:41;;;;;;;;;;;;;;;;;;2114915;27;45324;-68
2021/07/15 04:54:43;;;;;;;;;;;;;;;;;;2114236;28;46276;-68
2021/07/15 04:55:45;;;;;;;;;;;;;;;;;;2105868;28;46287;-68
2021/07/15 04:56:47;;;;;;;;;;;;;;;;;;2106171;28;46492;-68
2021/07/15 04:57:50;;;;;;;;;;;;;;;;;;2114107;28;46507;-68
2021/07/15 04:58:53;;;;;;;;;;;;;;;;;;2106532;28;46441;-68
2021/07/15 04:59:55;;;;;;;;;;;;;;;;;;2106320;28;45436;-70
2021/07/15 05:00:56;;;;;;;;;;;;;;;;;;2105991;28;45470;-69
2021/07/15 05:01:58;;;;;;;;;;;;;;;;;;2114303;28;47068;-68
2021/07/15 05:03:20;;;;;;;;;;;;;;;;;;2114599;28;44275;-68
2021/07/15 05:04:23;;;;;;;;;;;;;;;;;;2103852;28;46593;-68
2021/07/15 05:05:25;;;;;;;;;;;;;;;;;;2114943;27;45562;-68
2021/07/15 05:06:26;;;;;;;;;;;;;;;;;;2114888;27;45348;-67
2021/07/15 05:07:27;;;;;;;;;;;;;;;;;;2114796;27;45374;-67
2021/07/15 05:08:29;;;;;;;;;;;;;;;;;;2114109;28;45439;-67
2021/07/15 05:09:31;;;;;;;;;;;;;;;;;;2106032;28;44003;-67
2021/07/15 05:10:32;;;;;;;;;;;;;;;;;;2114094;28;46305;-67
2021/07/15 05:11:34;;;;;;;;;;;;;;;;;;2114250;28;46503;-67
2021/07/15 05:12:36;;;;;;;;;;;;;;;;;;2113951;28;45630;-67
2021/07/15 05:13:37;;;;;;;;;;;;;;;;;;2105909;28;46523;-67
2021/07/15 05:14:41;;;;;;;;;;;;;;;;;;2105548;28;46080;-67
2021/07/15 05:15:44;;;;;;;;;;;;;;;;;;2114155;28;45560;-67
2021/07/15 05:16:46;;;;;;;;;;;;;;;;;;2114093;28;45483;-68
2021/07/15 05:17:49;;;;;;;;;;;;;;;;;;2113861;28;46725;-69
2021/07/15 05:18:51;;;;;;;;;;;;;;;;;;2114571;28;43969;-69
2021/07/15 05:19:53;;;;;;;;;;;;;;;;;;2114128;28;44044;-69
2021/07/15 05:20:54;;;;;;;;;;;;;;;;;;2114510;28;45456;-69
2021/07/15 05:21:55;;;;;;;;;;;;;;;;;;2105763;28;45799;-69
2021/07/15 05:22:57;;;;;;;;;;;;;;;;;;2105660;28;46547;-70
2021/07/15 05:23:59;;;;;;;;;;;;;;;;;;2113990;28;45959;-69
2021/07/15 05:25:00;;;;;;;;;;;;;;;;;;2114605;27;46107;-69
2021/07/15 05:26:01;;;;;;;;;;;;;;;;;;2114573;27;47454;-69
2021/07/15 05:27:04;;;;;;;;;;;;;;;;;;2114587;27;46021;-69
2021/07/15 05:28:05;;;;;;;;;;;;;;;;;;2113876;28;47125;-69
2021/07/15 05:29:06;;;;;;;;;;;;;;;;;;2114094;28;47433;-69
2021/07/15 05:30:08;;;;;;;;;;;;;;;;;;2114089;28;46917;-69
2021/07/15 05:31:09;;;;;;;;;;;;;;;;;;2105672;28;47096;-69
2021/07/15 05:32:11;;;;;;;;;;;;;;;;;;2113897;28;45770;-69
2021/07/15 05:33:12;;;;;;;;;;;;;;;;;;2113891;28;45804;-69
2021/07/15 05:34:14;;;;;;;;;;;;;;;;;;2113983;28;45938;-68
2021/07/15 05:35:16;;;;;;;;;;;;;;;;;;2114007;28;46063;-68
2021/07/15 05:36:17;;;;;;;;;;;;;;;;;;2113938;28;47012;-68
2021/07/15 05:37:19;;;;;;;;;;;;;;;;;;2114670;27;44749;-69
2021/07/15 05:38:20;;;;;;;;;;;;;;;;;;2113884;28;47109;-69
2021/07/15 05:39:21;;;;;;;;;;;;;;;;;;2105662;28;45989;-68
2021/07/15 05:40:23;;;;;;;;;;;;;;;;;;2113705;28;45901;-69
2021/07/15 05:41:24;;;;;;;;;;;;;;;;;;2105738;28;45817;-68
2021/07/15 05:42:25;;;;;;;;;;;;;;;;;;2105400;28;44925;-69
2021/07/15 05:43:27;;;;;;;;;;;;;;;;;;2114058;28;46821;-68
2021/07/15 05:44:28;;;;;;;;;;;;;;;;;;2114551;27;45200;-68
2021/07/15 05:45:30;;;;;;;;;;;;;;;;;;2113944;28;45339;-68
2021/07/15 05:46:31;;;;;;;;;;;;;;;;;;2113946;28;45563;-69
2021/07/15 05:47:33;;;;;;;;;;;;;;;;;;2114398;27;45394;-68
2021/07/15 05:48:34;;;;;;;;;;;;;;;;;;2113846;28;46469;-68
2021/07/15 05:49:36;;;;;;;;;;;;;;;;;;2114014;28;45242;-68
2021/07/15 05:50:38;;;;;;;;;;;;;;;;;;2113927;28;45163;-68
2021/07/15 05:51:39;;;;;;;;;;;;;;;;;;2105628;28;44304;-68
2021/07/15 05:52:41;;;;;;;;;;;;;;;;;;2105214;28;43905;-69
2021/07/15 05:53:45;;;;;;;;;;;;;;;;;;2106015;28;46273;-68
2021/07/15 05:54:46;;;;;;;;;;;;;;;;;;2113796;28;45992;-69
2021/07/15 05:55:48;;;;;;;;;;;;;;;;;;2113978;28;45505;-69
2021/07/15 05:56:49;;;;;;;;;;;;;;;;;;2113816;28;45442;-69
2021/07/15 05:57:50;;;;;;;;;;;;;;;;;;2114231;27;45372;-69
2021/07/15 05:58:52;;;;;;;;;;;;;;;;;;2113783;28;46347;-68
2021/07/15 05:59:53;;;;;;;;;;;;;;;;;;2113956;28;45623;-69
2021/07/15 06:00:55;;;;;;;;;;;;;;;;;;2113751;28;46563;-68
2021/07/15 06:01:56;;;;;;;;;;;;;;;;;;2113945;28;45221;-68
2021/07/15 06:02:58;;;;;;;;;;;;;;;;;;2113571;27;45163;-68
2021/07/15 06:04:00;;;;;;;;;;;;;;;;;;2113925;28;46748;-68
2021/07/15 06:05:01;;;;;;;;;;;;;;;;;;2114161;28;46367;-68
2021/07/15 06:06:03;;;;;;;;;;;;;;;;;;2105551;28;46602;-69
2021/07/15 06:07:04;;;;;;;;;;;;;;;;;;2105678;28;45781;-69
2021/07/15 06:08:07;;;;;;;;;;;;;;;;;;2105265;28;44132;-67
2021/07/15 06:09:09;;;;;;;;;;;;;;;;;;2105702;28;43560;-69
2021/07/15 06:10:10;;;;;;;;;;;;;;;;;;2113772;28;46459;-69
2021/07/15 06:11:12;;;;;;;;;;;;;;;;;;2113952;28;46597;-69
2021/07/15 06:12:13;;;;;;;;;;;;;;;;;;2113475;28;44253;-69
2021/07/15 06:13:15;;;;;;;;;;;;;;;;;;2113880;28;45522;-69
2021/07/15 06:14:16;;;;;;;;;;;;;;;;;;2113843;28;45889;-69
2021/07/15 06:15:17;;;;;;;;;;;;;;;;;;2114857;27;45127;-68
2021/07/15 06:16:20;;;;;;;;;;;;;;;;;;2114388;27;46834;-68
2021/07/15 06:17:22;;;;;;;;;;;;;;;;;;2113558;28;46586;-69
2021/07/15 06:18:23;;;;;;;;;;;;;;;;;;2113825;28;45443;-69
2021/07/15 06:19:24;;;;;;;;;;;;;;;;;;2114360;28;45470;-69
2021/07/15 06:20:28;;;;;;;;;;;;;;;;;;2114559;27;44002;-69
2021/07/15 06:21:30;;;;;;;;;;;;;;;;;;2113693;28;44569;-69
2021/07/15 06:22:31;;;;;;;;;;;;;;;;;;2113651;28;45459;-69
2021/07/15 06:23:33;;;;;;;;;;;;;;;;;;2113898;28;46925;-69
2021/07/15 06:24:34;;;;;;;;;;;;;;;;;;2105602;28;45440;-68
2021/07/15 06:25:36;;;;;;;;;;;;;;;;;;2105971;28;45387;-66
2021/07/15 06:26:37;;;;;;;;;;;;;;;;;;2105938;28;43934;-68
2021/07/15 06:27:39;;;;;;;;;;;;;;;;;;2113622;28;45794;-68
2021/07/15 06:28:41;;;;;;;;;;;;;;;;;;2113768;28;45904;-68
2021/07/15 06:29:42;;;;;;;;;;;;;;;;;;2105836;28;45799;-69
2021/07/15 06:30:43;;;;;;;;;;;;;;;;;;2105736;28;45035;-69
2021/07/15 06:31:45;;;;;;;;;;;;;;;;;;2105852;28;46749;-69
2021/07/15 06:32:46;;;;;;;;;;;;;;;;;;2116964;28;47490;-68
2021/07/15 06:33:48;;;;;;;;;;;;;;;;;;2113825;28;45908;-68
2021/07/15 06:34:49;;;;;;;;;;;;;;;;;;2113869;28;44653;-68
2021/07/15 06:35:52;;;;;;;;;;;;;;;;;;2113832;28;47423;-68
2021/07/15 06:36:53;;;;;;;;;;;;;;;;;;2105492;28;46961;-68
2021/07/15 06:37:55;;;;;;;;;;;;;;;;;;2113602;28;43614;-68
2021/07/15 06:38:56;;;;;;;;;;;;;;;;;;2113776;28;44796;-68
2021/07/15 06:39:59;;;;;;;;;;;;;;;;;;2113959;28;44655;-69
2021/07/15 06:41:02;;;;;;;;;;;;;;;;;;2114308;27;45820;-67
2021/07/15 06:42:04;;;;;;;;;;;;;;;;;;2113570;28;47088;-66
2021/07/15 06:43:06;;;;;;;;;;;;;;;;;;2105652;28;44570;-67
2021/07/15 06:44:09;;;;;;;;;;;;;;;;;;2113750;28;47011;-67
2021/07/15 06:45:10;;;;;;;;;;;;;;;;;;2113687;28;47215;-67
2021/07/15 06:46:12;;;;;;;;;;;;;;;;;;2105380;28;43884;-67
2021/07/15 06:47:15;;;;;;;;;;;;;;;;;;2113654;28;44836;-66
2021/07/15 06:48:16;;;;;;;;;;;;;;;;;;2113930;27;46221;-67
2021/07/15 06:49:18;;;;;;;;;;;;;;;;;;2114081;28;45844;-67
2021/07/15 06:50:22;;;;;;;;;;;;;;;;;;2105330;28;43875;-67
2021/07/15 06:51:23;;;;;;;;;;;;;;;;;;2113699;28;46586;-67
2021/07/15 06:52:29;;;;;;;;;;;;;;;;;;2105113;28;44045;-67
2021/07/15 06:53:31;;;;;;;;;;;;;;;;;;2105898;28;45581;-67
2021/07/15 06:54:32;;;;;;;;;;;;;;;;;;2105342;28;43654;-67
2021/07/15 06:55:33;;;;;;;;;;;;;;;;;;2114039;27;45041;-67
2021/07/15 06:56:35;;;;;;;;;;;;;;;;;;2115607;27;43841;-67
2021/07/15 06:57:37;;;;;;;;;;;;;;;;;;2114793;28;44265;-67
2021/07/15 06:58:38;;;;;;;;;;;;;;;;;;2114961;28;45354;-67
2021/07/15 06:59:40;;;;;;;;;;;;;;;;;;2115856;27;46468;-67
2021/07/15 07:00:41;;;;;;;;;;;;;;;;;;2115661;27;46313;-66
2021/07/15 07:01:43;;;;;;;;;;;;;;;;;;2114899;28;46615;-66
2021/07/15 07:02:45;;;;;;;;;;;;;;;;;;2106429;28;46682;-67
2021/07/15 07:03:47;;;;;;;;;;;;;;;;;;2115029;28;45290;-67
2021/07/15 07:04:48;;;;;;;;;;;;;;;;;;2114938;28;45184;-67
2021/07/15 07:05:50;;;;;;;;;;;;;;;;;;2114966;28;45933;-67
2021/07/15 07:06:51;;;;;;;;;;;;;;;;;;2114951;28;45476;-67
2021/07/15 07:07:53;;;;;;;;;;;;;;;;;;2114839;28;45368;-67
2021/07/15 07:08:54;;;;;;;;;;;;;;;;;;2114887;28;46474;-67
2021/07/15 07:09:56;;;;;;;;;;;;;;;;;;2114856;28;44101;-67